createdAt,value
2023-05-06T00:01:52.561Z,3.15
2023-05-06T00:05:34.401Z,3.85
2023-05-06T00:09:16.289Z,3.43
2023-05-06T00:12:58.257Z,2.75
2023-05-06T00:16:40.325Z,3.33
2023-05-06T00:20:22.308Z,3.67
2023-05-06T00:24:04.743Z,3.42
2023-05-06T00:27:46.739Z,3.22
2023-05-06T00:31:28.994Z,3.67
2023-05-06T00:35:12.759Z,3.77
2023-05-06T00:38:54.679Z,3.53
2023-05-06T00:42:36.617Z,3.47
2023-05-06T00:46:18.878Z,2.87
2023-05-06T00:50:01.401Z,2.95
2023-05-06T00:53:46.891Z,3.40
2023-05-06T00:57:28.891Z,3.25
2023-05-06T01:01:11.042Z,3.05
2023-05-06T01:04:55.553Z,2.95
2023-05-06T01:08:50.327Z,3.67
2023-05-06T01:12:44.152Z,3.20
2023-05-06T01:16:30.889Z,4.13
2023-05-06T01:20:15.277Z,3.65
2023-05-06T01:23:58.670Z,3.60
2023-05-06T01:27:40.712Z,3.35
2023-05-06T01:31:26.984Z,3.28
2023-05-06T01:35:22.071Z,3.50
2023-05-06T01:39:19.038Z,4.82
2023-05-06T01:43:03.713Z,3.40
2023-05-06T01:46:46.298Z,3.97
2023-05-06T01:50:29.198Z,4.43
2023-05-06T01:54:11.148Z,4.45
2023-05-06T01:57:56.896Z,4.47
2023-05-06T02:01:38.825Z,4.53
2023-05-06T02:05:20.838Z,4.18
2023-05-06T02:09:02.906Z,4.60
2023-05-06T02:12:44.946Z,5.05
2023-05-06T02:16:30.107Z,4.43
2023-05-06T02:20:12.085Z,4.22
2023-05-06T02:23:54.009Z,4.10
2023-05-06T02:27:35.920Z,3.23
2023-05-06T02:31:18.180Z,3.42
2023-05-06T02:35:00.188Z,3.55
2023-05-06T02:38:42.214Z,3.73
2023-05-06T02:42:24.157Z,3.70
2023-05-06T02:46:06.338Z,2.97
2023-05-06T02:49:48.213Z,3.03
2023-05-06T02:53:30.126Z,3.17
2023-05-06T02:57:11.970Z,3.55
2023-05-06T03:00:53.922Z,3.47
2023-05-06T03:04:35.943Z,3.40
2023-05-06T03:08:18.088Z,3.03
2023-05-06T03:12:00.143Z,3.95
2023-05-06T03:15:42.052Z,3.90
2023-05-06T03:19:23.939Z,4.13
2023-05-06T03:23:05.848Z,3.80
2023-05-06T03:26:47.771Z,4.68
2023-05-06T03:30:29.753Z,3.97
2023-05-06T03:34:11.647Z,3.72
2023-05-06T03:37:53.663Z,3.85
2023-05-06T03:41:35.742Z,3.07
2023-05-06T03:45:17.666Z,3.60
2023-05-06T03:49:00.891Z,3.53
2023-05-06T03:52:43.581Z,3.70
2023-05-06T03:56:25.966Z,4.10
2023-05-06T04:00:09.151Z,3.95
2023-05-06T04:03:52.256Z,3.90
2023-05-06T04:07:34.403Z,3.80
2023-05-06T04:11:16.302Z,3.63
2023-05-06T04:14:58.442Z,3.00
2023-05-06T04:18:40.325Z,3.00
2023-05-06T04:22:22.242Z,2.47
2023-05-06T04:26:04.457Z,2.17
2023-05-06T04:29:46.469Z,2.73
2023-05-06T04:33:29.601Z,2.40
2023-05-06T04:37:11.527Z,2.00
2023-05-06T04:40:53.673Z,2.25
2023-05-06T04:44:36.636Z,2.00
2023-05-06T04:48:19.370Z,2.10
2023-05-06T04:52:02.064Z,2.00
2023-05-06T04:55:43.980Z,2.40
2023-05-06T04:59:26.103Z,2.78
2023-05-06T05:03:08.166Z,2.92
2023-05-06T05:06:50.184Z,3.67
2023-05-06T05:10:32.179Z,3.92
2023-05-06T05:14:14.075Z,4.55
2023-05-06T05:17:56.001Z,4.53
2023-05-06T05:21:49.421Z,4.32
2023-05-06T05:25:31.887Z,4.25
2023-05-06T05:29:42.073Z,3.40
2023-05-06T05:33:24.661Z,3.50
2023-05-06T05:37:36.235Z,3.33
2023-05-06T05:41:18.787Z,2.80
2023-05-06T05:45:29.561Z,2.87
2023-05-06T05:49:11.971Z,2.38
2023-05-06T05:53:22.543Z,2.50
2023-05-06T05:57:05.207Z,2.80
2023-05-06T06:01:19.439Z,2.40
2023-05-06T06:05:01.562Z,2.75
2023-05-06T06:12:47.133Z,2.80
2023-05-06T06:20:30.051Z,2.17
2023-05-06T06:24:53.943Z,2.57
2023-05-06T06:28:48.830Z,2.30
2023-05-06T06:37:19.287Z,2.83
2023-05-06T06:41:47.560Z,3.83
2023-05-06T06:45:33.075Z,2.17
2023-05-06T06:49:42.721Z,2.05
2023-05-06T06:53:24.900Z,2.93
2023-05-06T06:57:52.907Z,2.33
2023-05-06T07:01:55.512Z,1.83
2023-05-06T07:05:37.637Z,2.00
2023-05-06T07:09:19.986Z,5.43
2023-05-06T07:13:16.328Z,1.42
2023-05-06T07:16:59.514Z,1.30
2023-05-06T07:20:41.599Z,1.63
2023-05-06T07:24:26.672Z,1.65
2023-05-06T07:28:08.787Z,1.83
2023-05-06T07:31:50.953Z,1.40
2023-05-06T07:35:37.285Z,1.75
2023-05-06T07:39:19.551Z,1.15
2023-05-06T07:43:03.649Z,1.92
2023-05-06T07:50:47.099Z,0.55
2023-05-06T07:58:31.397Z,1.00
2023-05-06T08:02:13.730Z,0.80
2023-05-06T08:06:28.893Z,0.50
2023-05-06T08:10:11.229Z,0.70
2023-05-06T08:14:39.886Z,0.60
2023-05-06T08:18:40.278Z,0.85
2023-05-06T08:22:22.471Z,0.60
2023-05-06T08:26:32.581Z,0.52
2023-05-06T08:34:44.136Z,0.60
2023-05-06T08:43:28.732Z,0.60
2023-05-06T08:51:54.712Z,0.50
2023-05-06T08:56:11.166Z,0.80
2023-05-06T09:12:52.122Z,0.52
2023-05-06T09:16:34.656Z,0.50
2023-05-06T09:24:18.354Z,0.63
2023-05-06T09:28:29.345Z,0.43
2023-05-06T09:32:16.104Z,0.82
2023-05-06T09:36:23.818Z,0.43
2023-05-06T09:40:06.803Z,0.55
2023-05-06T09:47:59.808Z,0.70
2023-05-06T09:52:27.674Z,0.60
2023-05-06T10:00:17.894Z,0.73
2023-05-06T10:08:18.611Z,0.60
2023-05-06T10:29:48.019Z,0.30
2023-05-06T10:34:06.063Z,0.70
2023-05-06T10:42:17.358Z,0.60
2023-05-06T10:50:45.078Z,0.60
2023-05-06T10:54:29.067Z,0.40
2023-05-06T10:58:56.492Z,0.68
2023-05-06T11:03:07.670Z,0.30
2023-05-06T11:06:51.758Z,0.70
2023-05-06T11:14:42.149Z,0.40
2023-05-06T11:18:53.282Z,0.30
2023-05-06T11:22:44.915Z,0.50
2023-05-06T11:30:27.112Z,0.47
2023-05-06T11:38:12.244Z,0.30
2023-05-06T11:41:54.839Z,0.65
2023-05-06T11:45:59.702Z,0.50
2023-05-06T11:49:53.032Z,0.60
2023-05-06T12:20:57.276Z,0.52
2023-05-06T12:24:44.153Z,0.90
2023-05-06T12:38:16.031Z,1.08
2023-05-06T12:56:20.074Z,1.10
2023-05-06T13:00:51.241Z,0.83
2023-05-06T13:05:01.226Z,0.85
2023-05-06T13:08:43.991Z,0.75
2023-05-06T13:12:43.836Z,0.98
2023-05-06T13:16:26.709Z,1.42
2023-05-06T13:20:45.785Z,0.82
2023-05-06T13:24:27.789Z,0.90
2023-05-06T13:28:36.788Z,1.00
2023-05-06T13:48:59.790Z,0.65
2023-05-06T13:56:58.450Z,0.90
2023-05-06T14:01:14.687Z,1.33
2023-05-06T14:04:56.808Z,1.63
2023-05-06T14:12:43.361Z,1.20
2023-05-06T14:21:30.911Z,1.90
2023-05-06T14:25:13.412Z,1.88
2023-05-06T14:29:26.627Z,2.10
2023-05-06T14:33:12.068Z,1.75
2023-05-06T14:37:17.145Z,1.95
2023-05-06T14:40:59.663Z,1.83
2023-05-06T14:49:40.724Z,2.40
2023-05-06T14:53:25.108Z,2.15
2023-05-06T18:09:19.087Z,3.40
2023-05-06T18:18:25.402Z,2.80
2023-05-06T20:02:10.240Z,5.33
2023-05-06T20:05:55.778Z,6.10
2023-05-06T20:10:02.264Z,6.28
2023-05-06T20:13:46.122Z,7.50
2023-05-06T20:17:30.324Z,7.15
2023-05-06T20:21:15.046Z,7.38
2023-05-06T20:25:08.955Z,6.82
2023-05-06T20:28:54.387Z,6.90
2023-05-06T20:32:49.119Z,8.90
2023-05-06T20:36:37.457Z,9.30
2023-05-06T20:40:30.959Z,9.50
2023-05-06T20:44:24.688Z,9.23
2023-05-06T20:48:14.951Z,10.52
2023-05-06T20:52:01.274Z,11.70
2023-05-06T20:55:48.986Z,10.60
2023-05-06T20:59:34.788Z,11.00
2023-05-06T21:03:18.813Z,11.23
2023-05-06T21:07:01.219Z,11.13
2023-05-06T21:10:46.628Z,10.98
2023-05-06T21:14:31.183Z,12.27
2023-05-06T21:18:22.013Z,11.30
2023-05-06T21:22:04.548Z,11.38
2023-05-06T21:25:56.293Z,12.07
2023-05-06T21:29:43.050Z,11.03
2023-05-06T21:33:35.099Z,10.55
2023-05-06T21:37:17.372Z,9.70
2023-05-06T21:41:01.967Z,10.18
2023-05-06T21:44:53.129Z,10.85
2023-05-06T21:48:38.414Z,10.82
2023-05-06T21:52:23.130Z,10.90
2023-05-06T21:56:05.388Z,9.33
2023-05-06T21:59:47.409Z,9.13
2023-05-06T22:03:29.856Z,8.85
2023-05-06T22:07:12.054Z,9.93
2023-05-06T22:10:54.086Z,9.00
2023-05-06T22:14:41.229Z,10.00
2023-05-06T22:18:23.734Z,9.98
2023-05-06T22:22:05.877Z,10.88
2023-05-06T22:25:50.348Z,9.85
2023-05-06T22:29:35.150Z,9.77
2023-05-06T22:33:17.486Z,9.17
2023-05-06T22:37:01.043Z,8.80
2023-05-06T22:40:46.618Z,8.40
2023-05-06T22:44:31.977Z,8.67
2023-05-06T22:48:14.283Z,8.93
2023-05-06T22:51:57.132Z,8.25
2023-05-06T22:55:40.970Z,8.23
2023-05-06T22:59:22.957Z,9.32
2023-05-06T23:03:06.212Z,8.35
2023-05-06T23:06:50.868Z,8.30
2023-05-06T23:10:38.772Z,8.57
2023-05-06T23:14:20.906Z,8.15
2023-05-06T23:18:02.946Z,6.97
2023-05-06T23:21:45.024Z,7.57
2023-05-06T23:25:27.193Z,7.80
2023-05-06T23:29:09.203Z,7.80
2023-05-06T23:32:51.435Z,7.60
2023-05-06T23:36:34.229Z,6.65
2023-05-06T23:40:24.152Z,6.88
2023-05-06T23:44:06.743Z,6.78
2023-05-06T23:47:48.888Z,6.27
2023-05-06T23:51:31.796Z,6.70
2023-05-06T23:55:14.169Z,6.53
2023-05-06T23:58:56.403Z,6.40
